Time;durP1;ratioP1;P1;durP2;ratioP2;P2;SDS_P1;SDS_P2;PMS_P1;PMS_P2;Temp;Humidity;BMP_temperature;BMP_pressure;BME280_temperature;BME280_humidity;BME280_pressure;Samples;Min_cycle;Max_cycle;Signal;HPM_P1;HPM_P2
2021/09/23 00:01:40;;;;;;;0.65;0.65;;;12.30;99.90;;;;;;5010944;28;20205;-86
2021/09/23 00:04:32;;;;;;;0.55;0.55;;;12.30;99.90;;;;;;5024287;28;20365;-85
2021/09/23 00:06:59;;;;;;;0.85;0.85;;;12.30;99.90;;;;;;5017290;28;20191;-86
2021/09/23 00:09:25;;;;;;;0.55;0.55;;;12.30;99.90;;;;;;5009711;28;20210;-86
2021/09/23 00:11:51;;;;;;;1.73;0.98;;;12.30;99.90;;;;;;5011502;28;20207;-86
2021/09/23 00:14:17;;;;;;;0.57;0.57;;;12.40;99.90;;;;;;5019191;28;20632;-86
2021/09/23 00:16:42;;;;;;;0.70;0.70;;;12.30;99.90;;;;;;5009839;28;20529;-86
2021/09/23 00:19:08;;;;;;;0.85;0.70;;;12.40;99.90;;;;;;5012358;28;20221;-86
2021/09/23 00:21:34;;;;;;;0.85;0.85;;;12.40;99.90;;;;;;5024840;28;20572;-86
2021/09/23 00:24:00;;;;;;;1.45;1.35;;;12.40;99.90;;;;;;5014957;28;20206;-86
2021/09/23 00:26:26;;;;;;;1.75;1.20;;;12.40;99.90;;;;;;5015737;28;20777;-86
2021/09/23 00:28:51;;;;;;;0.40;0.40;;;12.40;99.90;;;;;;5016423;28;20203;-86
2021/09/23 00:31:17;;;;;;;0.60;0.60;;;12.40;99.90;;;;;;5013631;28;20249;-85
2021/09/23 00:33:43;;;;;;;1.70;1.60;;;12.40;99.90;;;;;;5015012;28;20227;-86
2021/09/23 00:36:09;;;;;;;0.65;0.65;;;12.40;99.90;;;;;;5013494;28;20663;-86
2021/09/23 00:38:35;;;;;;;0.60;0.60;;;12.40;99.90;;;;;;5014703;28;20203;-85
2021/09/23 00:41:00;;;;;;;0.60;0.60;;;12.50;99.90;;;;;;5014721;28;20268;-86
2021/09/23 00:43:26;;;;;;;0.93;0.93;;;12.50;99.90;;;;;;5014309;28;20218;-86
2021/09/23 00:45:52;;;;;;;0.50;0.50;;;12.50;99.90;;;;;;5013587;28;20202;-86
2021/09/23 00:48:18;;;;;;;0.60;0.60;;;12.50;99.90;;;;;;5014252;28;20214;-85
2021/09/23 00:50:44;;;;;;;0.70;0.70;;;12.60;99.90;;;;;;5014371;28;20661;-86
2021/09/23 00:53:10;;;;;;;0.40;0.40;;;12.50;99.90;;;;;;5018490;28;20240;-86
2021/09/23 00:55:36;;;;;;;0.73;0.73;;;12.50;99.90;;;;;;5013247;28;20297;-86
2021/09/23 00:58:03;;;;;;;0.75;0.75;;;12.60;99.90;;;;;;5027304;28;20713;-86
2021/09/23 01:00:29;;;;;;;0.70;0.70;;;12.60;99.90;;;;;;5028600;28;20205;-84
2021/09/23 01:02:55;;;;;;;1.27;1.17;;;12.50;99.90;;;;;;5026905;28;20206;-84
2021/09/23 01:05:20;;;;;;;0.47;0.47;;;12.50;99.90;;;;;;5020083;22;20244;-73
2021/09/23 01:07:48;;;;;;;1.17;1.10;;;12.60;99.90;;;;;;5010642;28;20211;-73
2021/09/23 01:10:16;;;;;;;0.60;0.60;;;12.50;99.90;;;;;;4993020;28;20290;-73
2021/09/23 01:12:42;;;;;;;0.50;0.50;;;12.50;99.90;;;;;;4995407;28;20287;-72
2021/09/23 01:15:08;;;;;;;0.60;0.60;;;12.60;99.90;;;;;;4995553;28;20231;-72
2021/09/23 01:17:34;;;;;;;0.55;0.55;;;12.60;99.90;;;;;;4993853;28;20572;-72
2021/09/23 01:20:01;;;;;;;2.30;1.00;;;12.50;99.90;;;;;;4993962;28;20558;-73
2021/09/23 01:22:26;;;;;;;0.60;0.60;;;12.60;99.90;;;;;;4995037;28;20246;-72
2021/09/23 01:24:52;;;;;;;0.82;0.82;;;12.60;99.90;;;;;;4995359;28;20224;-74
2021/09/23 01:27:18;;;;;;;0.75;0.75;;;12.50;99.90;;;;;;4994722;28;20198;-73
2021/09/23 01:29:44;;;;;;;1.05;0.98;;;12.50;99.90;;;;;;4996349;28;20235;-72
2021/09/23 01:32:11;;;;;;;0.40;0.40;;;12.60;99.90;;;;;;4989075;28;20211;-73
2021/09/23 01:34:39;;;;;;;1.02;0.65;;;12.60;99.90;;;;;;5010167;28;20213;-72
2021/09/23 01:37:06;;;;;;;0.50;0.50;;;12.60;99.90;;;;;;4993769;28;20611;-73
2021/09/23 01:39:32;;;;;;;0.70;0.70;;;12.60;99.90;;;;;;4993695;28;20208;-72
2021/09/23 01:41:58;;;;;;;0.60;0.60;;;12.60;99.90;;;;;;4994701;28;20634;-73
2021/09/23 01:44:24;;;;;;;0.40;0.40;;;12.60;99.90;;;;;;5009783;28;20576;-73
2021/09/23 01:46:50;;;;;;;0.77;0.77;;;12.60;99.90;;;;;;4995163;28;20211;-72
2021/09/23 01:49:16;;;;;;;0.50;0.50;;;12.60;99.90;;;;;;4994215;28;20199;-73
2021/09/23 01:51:42;;;;;;;0.52;0.52;;;12.60;99.90;;;;;;4993166;28;20199;-73
2021/09/23 01:54:07;;;;;;;0.70;0.70;;;12.60;99.90;;;;;;4993358;28;20599;-72
2021/09/23 01:56:33;;;;;;;0.82;0.82;;;12.60;99.90;;;;;;4994321;28;20286;-73
2021/09/23 01:58:59;;;;;;;0.60;0.60;;;12.60;99.90;;;;;;4993340;28;20214;-72
2021/09/23 02:01:24;;;;;;;0.60;0.60;;;12.60;99.90;;;;;;4989866;28;20208;-73
2021/09/23 02:03:50;;;;;;;0.50;0.50;;;12.60;99.90;;;;;;4994328;28;20235;-73
2021/09/23 02:06:16;;;;;;;0.50;0.50;;;12.60;99.90;;;;;;4992000;28;20199;-72
2021/09/23 02:08:42;;;;;;;0.50;0.50;;;12.60;99.90;;;;;;4993464;28;20208;-71
2021/09/23 02:11:08;;;;;;;1.33;1.08;;;12.70;99.90;;;;;;4993288;28;20210;-72
2021/09/23 02:13:33;;;;;;;0.70;0.70;;;12.70;99.90;;;;;;5009821;28;20215;-72
2021/09/23 02:16:00;;;;;;;0.50;0.50;;;12.70;99.90;;;;;;4992012;28;20281;-72
2021/09/23 02:18:27;;;;;;;0.45;0.45;;;12.70;99.90;;;;;;4994259;28;20218;-72
2021/09/23 02:20:52;;;;;;;0.73;0.73;;;12.70;99.90;;;;;;4991877;28;20609;-72
2021/09/23 02:23:18;;;;;;;0.60;0.60;;;12.70;99.90;;;;;;4993014;28;20211;-72
2021/09/23 02:25:44;;;;;;;0.40;0.40;;;12.70;99.90;;;;;;4994059;28;20207;-72
2021/09/23 02:28:10;;;;;;;1.85;1.02;;;12.70;99.90;;;;;;5009597;28;20331;-72
2021/09/23 02:30:35;;;;;;;0.50;0.50;;;12.70;99.90;;;;;;4991276;28;20204;-72
2021/09/23 02:33:01;;;;;;;0.50;0.50;;;12.70;99.90;;;;;;4991517;28;20234;-72
2021/09/23 02:35:28;;;;;;;0.57;0.57;;;12.70;99.90;;;;;;4992713;28;20218;-72
2021/09/23 02:37:54;;;;;;;0.52;0.52;;;12.70;99.90;;;;;;4993043;28;20329;-73
2021/09/23 02:40:19;;;;;;;0.60;0.60;;;12.70;99.90;;;;;;4992565;28;20207;-74
2021/09/23 02:42:45;;;;;;;0.50;0.50;;;12.80;99.90;;;;;;4992802;28;20226;-73
2021/09/23 02:45:13;;;;;;;0.50;0.50;;;12.70;99.90;;;;;;4993729;28;20207;-72
2021/09/23 02:47:38;;;;;;;0.57;0.57;;;12.70;99.90;;;;;;4993747;28;20199;-72
2021/09/23 02:50:05;;;;;;;0.40;0.40;;;12.70;99.90;;;;;;4992429;28;20211;-72
2021/09/23 02:52:31;;;;;;;0.50;0.50;;;12.70;99.90;;;;;;4992160;28;20210;-73
2021/09/23 02:54:56;;;;;;;1.00;0.75;;;12.80;99.90;;;;;;4992211;28;20208;-72
2021/09/23 02:57:23;;;;;;;0.50;0.50;;;12.70;99.90;;;;;;4993276;28;20282;-73
2021/09/23 02:59:49;;;;;;;5.50;1.30;;;12.70;99.90;;;;;;4992241;28;20365;-72
2021/09/23 03:02:14;;;;;;;0.55;0.55;;;12.80;99.90;;;;;;4991054;28;20214;-72
2021/09/23 03:04:40;;;;;;;0.90;0.90;;;12.80;99.90;;;;;;4993357;28;20228;-72
2021/09/23 03:07:06;;;;;;;0.50;0.50;;;12.70;99.90;;;;;;4992235;28;20254;-72
2021/09/23 03:09:32;;;;;;;0.77;0.77;;;12.80;99.90;;;;;;4993385;28;20203;-72
2021/09/23 03:11:58;;;;;;;0.50;0.50;;;12.80;99.90;;;;;;5008466;28;20279;-72
2021/09/23 03:14:23;;;;;;;0.60;0.60;;;12.80;99.90;;;;;;5004541;28;20216;-73
2021/09/23 03:16:49;;;;;;;1.85;0.98;;;12.80;99.90;;;;;;4993577;28;20211;-73
2021/09/23 03:19:15;;;;;;;1.15;1.05;;;12.80;99.90;;;;;;4993291;28;20255;-73
2021/09/23 03:21:41;;;;;;;4.57;0.88;;;12.80;99.90;;;;;;4993111;28;20235;-73
2021/09/23 03:24:07;;;;;;;0.50;0.50;;;12.80;99.90;;;;;;4993169;28;20212;-72
2021/09/23 03:26:33;;;;;;;0.50;0.50;;;12.80;99.90;;;;;;4993000;28;20203;-73
2021/09/23 03:28:59;;;;;;;0.60;0.60;;;12.80;99.90;;;;;;4992352;28;20249;-73
2021/09/23 03:31:25;;;;;;;0.85;0.85;;;12.80;99.90;;;;;;4991569;28;20207;-72
2021/09/23 03:33:51;;;;;;;0.60;0.60;;;12.80;99.90;;;;;;4993137;28;20612;-73
2021/09/23 03:36:17;;;;;;;0.50;0.50;;;12.80;99.90;;;;;;4992920;28;20350;-72
2021/09/23 03:38:43;;;;;;;0.50;0.50;;;12.80;99.90;;;;;;4990611;28;20562;-73
2021/09/23 03:41:09;;;;;;;0.40;0.40;;;12.80;99.90;;;;;;4993036;28;20211;-73
2021/09/23 03:43:35;;;;;;;0.65;0.65;;;12.80;99.90;;;;;;4991136;28;20772;-73
2021/09/23 03:46:04;;;;;;;0.45;0.45;;;12.80;99.90;;;;;;4992836;28;20258;-73
2021/09/23 03:48:31;;;;;;;0.50;0.50;;;12.80;99.90;;;;;;4992759;28;20678;-73
2021/09/23 03:50:58;;;;;;;0.52;0.52;;;12.80;99.90;;;;;;4990362;28;20199;-72
2021/09/23 03:53:24;;;;;;;0.50;0.50;;;12.80;99.90;;;;;;4991275;28;20312;-73
2021/09/23 03:55:50;;;;;;;0.50;0.50;;;12.80;99.90;;;;;;4991486;28;20226;-74
2021/09/23 03:58:16;;;;;;;2.13;0.93;;;12.80;99.90;;;;;;4990513;28;20623;-73
2021/09/23 04:00:42;;;;;;;0.60;0.60;;;12.90;99.90;;;;;;4992218;28;20212;-73
2021/09/23 04:03:08;;;;;;;0.50;0.50;;;12.80;99.90;;;;;;4992484;28;20223;-72
2021/09/23 04:05:33;;;;;;;0.60;0.60;;;12.80;99.90;;;;;;4991333;28;20282;-73
2021/09/23 04:08:00;;;;;;;0.50;0.50;;;12.90;99.90;;;;;;4990710;28;20637;-72
2021/09/23 04:10:26;;;;;;;0.77;0.77;;;12.90;99.90;;;;;;4993413;28;20203;-72
2021/09/23 04:12:55;;;;;;;0.65;0.65;;;12.90;99.90;;;;;;4991888;28;20250;-72
2021/09/23 04:15:22;;;;;;;0.85;0.85;;;12.90;99.90;;;;;;4990386;28;20207;-73
2021/09/23 04:17:48;;;;;;;0.40;0.40;;;12.90;99.90;;;;;;4991507;28;20204;-72
2021/09/23 04:20:14;;;;;;;2.75;1.30;;;12.90;99.90;;;;;;4991353;28;20219;-72
2021/09/23 04:22:40;;;;;;;0.55;0.55;;;12.90;99.90;;;;;;4990162;28;20274;-72
2021/09/23 04:25:06;;;;;;;0.50;0.50;;;12.90;99.90;;;;;;4990699;28;20204;-72
2021/09/23 04:27:32;;;;;;;0.50;0.50;;;12.90;99.90;;;;;;4991244;28;20699;-73
2021/09/23 04:29:58;;;;;;;0.43;0.43;;;12.90;99.90;;;;;;4992389;28;20204;-72
2021/09/23 04:32:23;;;;;;;0.55;0.55;;;12.90;99.90;;;;;;4992404;28;20231;-72
2021/09/23 04:34:49;;;;;;;0.50;0.50;;;12.90;99.90;;;;;;4991121;28;20230;-72
2021/09/23 04:37:15;;;;;;;0.50;0.50;;;12.90;99.90;;;;;;4989773;28;20207;-73
2021/09/23 04:39:41;;;;;;;0.50;0.50;;;12.90;99.90;;;;;;4990903;28;20207;-72
2021/09/23 04:42:06;;;;;;;0.88;0.88;;;12.90;99.90;;;;;;4990804;28;20211;-73
2021/09/23 04:44:32;;;;;;;0.50;0.50;;;12.90;99.90;;;;;;4972766;28;20552;-72
2021/09/23 04:47:02;;;;;;;0.50;0.50;;;12.90;99.90;;;;;;4991460;28;20221;-74
2021/09/23 04:49:28;;;;;;;0.47;0.47;;;12.90;99.90;;;;;;4991534;28;20202;-72
2021/09/23 04:51:54;;;;;;;0.60;0.60;;;12.90;99.90;;;;;;4992299;28;20227;-72
2021/09/23 04:54:20;;;;;;;0.40;0.40;;;12.90;99.90;;;;;;4990869;28;20293;-73
2021/09/23 04:56:46;;;;;;;0.40;0.40;;;12.90;99.90;;;;;;4989809;28;20647;-72
2021/09/23 04:59:11;;;;;;;0.50;0.50;;;12.90;99.90;;;;;;4991108;28;20230;-73
2021/09/23 05:01:37;;;;;;;0.55;0.55;;;12.90;99.90;;;;;;4990671;28;20721;-72
2021/09/23 05:04:06;;;;;;;0.40;0.40;;;13.00;99.90;;;;;;4990705;28;20271;-72
2021/09/23 05:06:31;;;;;;;0.50;0.50;;;13.00;99.90;;;;;;4993436;28;20214;-73
2021/09/23 05:08:57;;;;;;;0.50;0.50;;;13.00;99.90;;;;;;4994459;28;20204;-72
2021/09/23 05:11:26;;;;;;;0.50;0.50;;;13.00;99.90;;;;;;4993006;28;20223;-72
2021/09/23 05:13:52;;;;;;;0.45;0.45;;;13.00;99.90;;;;;;4987185;28;20669;-71
2021/09/23 05:16:18;;;;;;;0.40;0.40;;;13.00;99.90;;;;;;4985708;28;20204;-73
2021/09/23 05:18:46;;;;;;;0.73;0.70;;;13.00;99.90;;;;;;4993259;28;20544;-72
2021/09/23 05:21:12;;;;;;;0.75;0.60;;;13.00;99.90;;;;;;4995501;28;20711;-72
2021/09/23 05:23:38;;;;;;;0.50;0.50;;;13.00;99.90;;;;;;4994096;28;20207;-71
2021/09/23 05:26:04;;;;;;;0.80;0.80;;;13.00;99.90;;;;;;4993848;28;20208;-71
2021/09/23 05:28:31;;;;;;;0.40;0.40;;;13.00;99.90;;;;;;4995778;28;20864;-72
2021/09/23 05:30:57;;;;;;;0.63;0.63;;;13.00;99.90;;;;;;4996292;28;20203;-71
2021/09/23 05:33:22;;;;;;;0.93;0.93;;;13.00;99.90;;;;;;4995460;28;20215;-72
2021/09/23 05:35:48;;;;;;;0.40;0.40;;;13.00;99.90;;;;;;4992912;28;20215;-72
2021/09/23 05:38:15;;;;;;;1.33;0.57;;;13.00;99.90;;;;;;4993971;28;20561;-72
2021/09/23 05:40:40;;;;;;;0.80;0.80;;;13.00;99.90;;;;;;4994277;28;20625;-72
2021/09/23 05:43:06;;;;;;;0.50;0.50;;;13.00;99.90;;;;;;4990132;28;20212;-72
2021/09/23 05:45:32;;;;;;;0.70;0.70;;;13.00;99.90;;;;;;4991904;28;20204;-72
2021/09/23 05:47:58;;;;;;;0.50;0.50;;;13.00;99.90;;;;;;4992552;28;20764;-72
2021/09/23 05:50:24;;;;;;;0.50;0.50;;;13.00;99.90;;;;;;4992120;28;20614;-71
2021/09/23 05:52:50;;;;;;;0.50;0.50;;;13.10;99.90;;;;;;4992323;28;20689;-72
2021/09/23 05:55:16;;;;;;;0.50;0.50;;;13.00;99.90;;;;;;4994767;28;20208;-72
2021/09/23 05:57:42;;;;;;;0.60;0.60;;;13.00;99.90;;;;;;4993401;28;20219;-72
2021/09/23 06:00:12;;;;;;;0.50;0.50;;;13.10;99.90;;;;;;4992040;28;20734;-72
2021/09/23 06:02:38;;;;;;;0.50;0.50;;;13.10;99.90;;;;;;4994056;28;20259;-72
2021/09/23 06:05:05;;;;;;;1.65;0.95;;;13.00;99.90;;;;;;4994396;28;20231;-72
2021/09/23 06:07:30;;;;;;;0.50;0.50;;;13.10;99.90;;;;;;4991674;28;20227;-72
2021/09/23 06:09:56;;;;;;;0.47;0.47;;;13.10;99.90;;;;;;4994511;28;20239;-72
2021/09/23 06:12:22;;;;;;;0.40;0.40;;;13.10;99.90;;;;;;4994205;28;20246;-72
2021/09/23 06:14:47;;;;;;;0.43;0.43;;;13.00;99.90;;;;;;4994527;28;20209;-72
2021/09/23 06:17:14;;;;;;;0.75;0.75;;;13.00;99.90;;;;;;4992235;28;20262;-72
2021/09/23 06:19:40;;;;;;;1.40;0.80;;;13.00;99.90;;;;;;4992709;28;20290;-73
2021/09/23 06:22:06;;;;;;;0.57;0.57;;;13.00;99.90;;;;;;4992738;28;20221;-72
2021/09/23 06:24:31;;;;;;;0.50;0.50;;;13.00;99.90;;;;;;4992776;28;20218;-73
2021/09/23 06:26:57;;;;;;;0.50;0.50;;;13.00;99.90;;;;;;4992954;28;20223;-73
2021/09/23 06:29:23;;;;;;;0.65;0.60;;;13.00;99.90;;;;;;4992641;28;20207;-72
2021/09/23 06:31:49;;;;;;;0.80;0.80;;;13.00;99.90;;;;;;4993838;28;20207;-72
2021/09/23 06:34:14;;;;;;;0.50;0.50;;;13.00;99.90;;;;;;4993116;28;20599;-72
2021/09/23 06:36:40;;;;;;;1.05;0.88;;;13.10;99.90;;;;;;4994039;28;20578;-72
2021/09/23 06:39:06;;;;;;;0.73;0.73;;;13.10;99.90;;;;;;4993737;28;20204;-72
2021/09/23 06:41:32;;;;;;;0.50;0.50;;;13.10;99.90;;;;;;4992327;28;20682;-72
2021/09/23 06:44:04;;;;;;;0.63;0.60;;;13.10;99.90;;;;;;5010225;28;20304;-72
2021/09/23 06:46:30;;;;;;;0.45;0.45;;;13.10;99.90;;;;;;4994881;28;20207;-72
2021/09/23 06:48:56;;;;;;;0.70;0.70;;;13.10;99.90;;;;;;4993552;28;20199;-72
2021/09/23 06:51:22;;;;;;;0.60;0.60;;;13.10;99.90;;;;;;4993798;28;20287;-72
2021/09/23 06:53:48;;;;;;;0.50;0.50;;;13.10;99.90;;;;;;4991389;28;20218;-72
2021/09/23 06:56:15;;;;;;;0.60;0.60;;;13.10;99.90;;;;;;4990949;28;20218;-73
2021/09/23 06:58:40;;;;;;;0.60;0.60;;;13.10;99.90;;;;;;4992136;28;20218;-72
2021/09/23 07:01:06;;;;;;;0.50;0.50;;;13.10;99.90;;;;;;4990752;28;20204;-72
2021/09/23 07:03:32;;;;;;;0.85;0.85;;;13.10;99.90;;;;;;4992048;28;20215;-72
2021/09/23 07:05:58;;;;;;;0.55;0.55;;;13.00;99.90;;;;;;4991911;28;20270;-72
2021/09/23 07:08:23;;;;;;;0.98;0.98;;;13.00;99.90;;;;;;4990759;28;20206;-73
2021/09/23 07:10:52;;;;;;;0.57;0.57;;;13.00;99.90;;;;;;4992089;28;20558;-72
2021/09/23 07:13:19;;;;;;;0.45;0.45;;;12.90;99.90;;;;;;4992512;28;20214;-73
2021/09/23 07:15:45;;;;;;;0.60;0.60;;;12.90;99.90;;;;;;4990645;28;20250;-73
2021/09/23 07:18:10;;;;;;;0.95;0.85;;;12.90;99.90;;;;;;4990711;28;20778;-73
2021/09/23 07:20:36;;;;;;;0.50;0.50;;;12.80;99.90;;;;;;4991764;28;20658;-72
2021/09/23 07:23:02;;;;;;;0.55;0.55;;;12.80;99.90;;;;;;4991831;28;20222;-72
2021/09/23 07:25:30;;;;;;;0.40;0.40;;;12.80;99.90;;;;;;4992616;28;20242;-72
2021/09/23 07:27:56;;;;;;;0.60;0.60;;;12.80;99.90;;;;;;4991040;28;20210;-72
2021/09/23 07:30:23;;;;;;;0.47;0.47;;;12.90;99.90;;;;;;4991104;28;20204;-72
2021/09/23 07:32:49;;;;;;;0.50;0.50;;;12.80;99.90;;;;;;4993082;28;20207;-72
2021/09/23 07:35:15;;;;;;;0.50;0.50;;;12.70;99.90;;;;;;4991610;28;20230;-72
2021/09/23 07:37:41;;;;;;;0.47;0.47;;;12.70;99.90;;;;;;4992822;28;20219;-73
2021/09/23 07:40:09;;;;;;;0.50;0.50;;;12.60;99.90;;;;;;4991513;28;20211;-72
2021/09/23 07:42:36;;;;;;;0.50;0.50;;;12.60;99.90;;;;;;4992355;28;20223;-72
2021/09/23 07:45:04;;;;;;;0.35;0.35;;;12.70;99.90;;;;;;4992696;28;20211;-72
2021/09/23 07:47:30;;;;;;;0.40;0.40;;;12.70;99.90;;;;;;4989991;28;20204;-72
2021/09/23 07:49:56;;;;;;;0.50;0.50;;;12.80;99.90;;;;;;4992823;28;20724;-72
2021/09/23 07:52:22;;;;;;;0.50;0.50;;;12.90;99.90;;;;;;4990230;28;20207;-72
2021/09/23 07:54:48;;;;;;;0.50;0.50;;;12.90;99.90;;;;;;4989988;28;20233;-72
2021/09/23 07:57:14;;;;;;;0.50;0.50;;;12.90;99.90;;;;;;4993137;28;20218;-72
2021/09/23 07:59:40;;;;;;;0.50;0.50;;;12.90;99.90;;;;;;4991388;28;20678;-72
2021/09/23 08:02:07;;;;;;;0.50;0.50;;;13.00;99.90;;;;;;4990385;28;20434;-72
2021/09/23 08:04:32;;;;;;;3.45;1.10;;;12.90;99.90;;;;;;4991279;28;20867;-72
2021/09/23 08:06:58;;;;;;;0.40;0.40;;;12.80;99.90;;;;;;4991310;28;20314;-72
2021/09/23 08:09:24;;;;;;;0.60;0.60;;;12.70;99.90;;;;;;4992263;28;20294;-73
2021/09/23 08:11:50;;;;;;;0.70;0.70;;;12.70;99.90;;;;;;4992583;28;20246;-72
2021/09/23 08:14:16;;;;;;;0.50;0.50;;;12.70;99.90;;;;;;4992011;28;20210;-72
2021/09/23 08:16:43;;;;;;;0.68;0.68;;;12.60;99.90;;;;;;4992461;28;20215;-72
2021/09/23 08:19:09;;;;;;;0.50;0.50;;;12.60;99.90;;;;;;4991271;28;20203;-71
2021/09/23 08:21:35;;;;;;;0.60;0.60;;;12.50;99.90;;;;;;4990906;28;20215;-71
2021/09/23 08:24:00;;;;;;;0.50;0.50;;;12.50;99.90;;;;;;4991023;28;20215;-72
2021/09/23 08:26:27;;;;;;;0.60;0.60;;;12.40;99.90;;;;;;4990921;28;20573;-71
2021/09/23 08:28:54;;;;;;;0.50;0.50;;;12.30;99.90;;;;;;4991367;28;20222;-72
2021/09/23 08:31:21;;;;;;;0.50;0.50;;;12.20;99.90;;;;;;4990946;28;20674;-73
2021/09/23 08:33:47;;;;;;;0.40;0.40;;;12.20;99.90;;;;;;4991216;28;20258;-72
2021/09/23 08:36:13;;;;;;;0.40;0.40;;;12.00;99.90;;;;;;4992373;28;20207;-72
2021/09/23 08:38:39;;;;;;;0.47;0.47;;;11.70;99.90;;;;;;4990800;28;20696;-72
2021/09/23 08:41:04;;;;;;;0.50;0.50;;;11.60;99.90;;;;;;4990573;28;20211;-72
2021/09/23 08:43:32;;;;;;;0.55;0.55;;;11.40;99.90;;;;;;4993144;28;20215;-72
2021/09/23 08:45:58;;;;;;;0.50;0.50;;;11.30;99.90;;;;;;4996160;28;20238;-72
2021/09/23 08:48:25;;;;;;;0.60;0.60;;;11.30;99.90;;;;;;4995645;28;20210;-72
2021/09/23 08:50:51;;;;;;;0.45;0.45;;;11.40;99.90;;;;;;4994011;28;20211;-72
2021/09/23 08:53:17;;;;;;;0.57;0.57;;;11.40;99.90;;;;;;4995772;28;20203;-72
2021/09/23 08:55:43;;;;;;;2.88;0.98;;;11.40;99.90;;;;;;4994265;28;20286;-72
2021/09/23 08:58:10;;;;;;;0.50;0.50;;;11.50;99.90;;;;;;4996191;28;20720;-72
2021/09/23 09:00:57;;;;;;;0.50;0.50;;;11.60;99.90;;;;;;4994096;28;20581;-72
2021/09/23 09:03:25;;;;;;;0.65;0.65;;;11.70;99.90;;;;;;4977810;28;20361;-72
2021/09/23 09:05:53;;;;;;;0.60;0.60;;;11.80;99.90;;;;;;4995357;28;20582;-72
2021/09/23 09:08:21;;;;;;;0.50;0.50;;;12.00;99.90;;;;;;4994251;28;20200;-72
2021/09/23 09:10:47;;;;;;;0.60;0.60;;;12.10;99.90;;;;;;4994507;28;20279;-72
2021/09/23 09:13:13;;;;;;;0.50;0.50;;;12.20;99.90;;;;;;4995662;28;20200;-72
2021/09/23 09:15:47;;;;;;;0.57;0.57;;;12.20;99.90;;;;;;4993993;28;20219;-74
2021/09/23 09:18:18;;;;;;;0.50;0.50;;;12.20;99.90;;;;;;4995461;28;20239;-74
2021/09/23 09:20:54;;;;;;;0.50;0.50;;;12.20;99.90;;;;;;4995036;28;20209;-72
2021/09/23 09:23:22;;;;;;;0.68;0.68;;;12.20;99.90;;;;;;4994147;28;20559;-72
2021/09/23 09:25:47;;;;;;;0.55;0.55;;;12.00;99.90;;;;;;4994571;28;20286;-71
2021/09/23 09:28:16;;;;;;;0.50;0.50;;;11.90;99.90;;;;;;4995323;28;20227;-72
2021/09/23 09:30:43;;;;;;;0.50;0.50;;;11.90;99.90;;;;;;4993629;28;20612;-71
2021/09/23 09:33:12;;;;;;;0.63;0.63;;;11.80;99.90;;;;;;4995382;28;20203;-72
2021/09/23 09:35:37;;;;;;;0.50;0.50;;;11.70;99.90;;;;;;4993865;28;20719;-72
2021/09/23 09:38:05;;;;;;;0.50;0.50;;;11.70;99.90;;;;;;4993793;28;20294;-72
2021/09/23 09:40:35;;;;;;;0.60;0.60;;;11.70;99.90;;;;;;4993528;28;20654;-72
2021/09/23 09:43:12;;;;;;;0.68;0.68;;;11.60;99.90;;;;;;4993756;28;20203;-72
2021/09/23 09:45:38;;;;;;;2.50;1.08;;;11.60;99.90;;;;;;4992535;28;20207;-72
2021/09/23 09:48:05;;;;;;;0.50;0.50;;;11.60;99.90;;;;;;4992632;28;20269;-72
2021/09/23 09:50:36;;;;;;;0.50;0.50;;;11.60;99.90;;;;;;4993606;28;20743;-72
2021/09/23 09:53:08;;;;;;;0.50;0.50;;;11.50;99.90;;;;;;4994624;28;20199;-71
2021/09/23 09:55:43;;;;;;;0.60;0.60;;;11.50;99.90;;;;;;4993427;28;20615;-72
2021/09/23 09:58:10;;;;;;;0.50;0.50;;;11.60;99.90;;;;;;4993702;28;20690;-72
2021/09/23 10:00:37;;;;;;;0.50;0.50;;;11.70;99.90;;;;;;4993009;28;20203;-72
2021/09/23 10:03:04;;;;;;;0.50;0.50;;;11.80;99.90;;;;;;4994617;28;20438;-72
2021/09/23 10:05:31;;;;;;;0.50;0.50;;;11.90;99.90;;;;;;4993937;28;20263;-73
2021/09/23 10:07:59;;;;;;;0.50;0.50;;;11.90;99.90;;;;;;4994763;28;20566;-71
2021/09/23 10:10:28;;;;;;;0.50;0.50;;;12.00;99.90;;;;;;4992933;28;20206;-73
2021/09/23 10:12:59;;;;;;;0.50;0.50;;;12.10;99.90;;;;;;4994371;28;20207;-72
2021/09/23 10:15:26;;;;;;;0.50;0.50;;;12.20;99.90;;;;;;4994056;28;20339;-72
2021/09/23 10:17:55;;;;;;;0.50;0.50;;;12.40;99.90;;;;;;4992896;28;20212;-72
2021/09/23 10:20:24;;;;;;;0.50;0.50;;;12.50;99.90;;;;;;4992847;28;20689;-74
2021/09/23 10:22:51;;;;;;;0.40;0.40;;;12.50;99.90;;;;;;4991543;28;20215;-73
2021/09/23 10:25:30;;;;;;;0.50;0.50;;;12.60;99.90;;;;;;4994250;28;20282;-73
2021/09/23 10:27:58;;;;;;;0.50;0.50;;;12.60;99.90;;;;;;4992973;28;20670;-73
2021/09/23 10:30:31;;;;;;;0.50;0.50;;;12.50;99.90;;;;;;4992434;28;20655;-73
2021/09/23 10:32:58;;;;;;;0.50;0.50;;;12.60;99.90;;;;;;4991798;28;20230;-72
2021/09/23 10:35:25;;;;;;;0.47;0.47;;;12.70;99.90;;;;;;4993821;28;20208;-72
2021/09/23 10:37:55;;;;;;;0.40;0.40;;;12.70;99.90;;;;;;4992682;28;20212;-72
2021/09/23 10:40:21;;;;;;;0.60;0.60;;;12.80;99.90;;;;;;4992525;28;20380;-72
2021/09/23 10:42:50;;;;;;;0.60;0.60;;;12.90;99.90;;;;;;4990157;28;20734;-72
2021/09/23 10:45:17;;;;;;;0.50;0.50;;;13.00;99.90;;;;;;4993659;28;20195;-72
2021/09/23 10:47:46;;;;;;;0.50;0.50;;;13.20;99.90;;;;;;4993757;28;20223;-72
2021/09/23 10:50:13;;;;;;;0.50;0.50;;;13.40;99.90;;;;;;4994103;28;20214;-72
2021/09/23 10:52:41;;;;;;;0.40;0.40;;;13.50;99.90;;;;;;4992594;28;20220;-72
2021/09/23 10:55:08;;;;;;;0.50;0.50;;;13.70;99.90;;;;;;4992227;28;20246;-72
2021/09/23 10:57:34;;;;;;;0.40;0.40;;;14.00;99.90;;;;;;4992250;28;20218;-72
2021/09/23 11:00:04;;;;;;;0.70;0.70;;;14.30;99.90;;;;;;4993500;28;20215;-72
2021/09/23 11:02:31;;;;;;;0.50;0.50;;;14.60;99.90;;;;;;4992868;28;20215;-72
2021/09/23 11:05:05;;;;;;;0.40;0.40;;;15.00;99.90;;;;;;4992665;28;20223;-71
2021/09/23 11:07:33;;;;;;;0.47;0.47;;;15.30;99.90;;;;;;4993363;28;20211;-71
2021/09/23 11:10:10;;;;;;;0.50;0.50;;;15.30;99.90;;;;;;4993292;28;20203;-72
2021/09/23 11:12:37;;;;;;;0.40;0.40;;;15.30;99.90;;;;;;4991902;28;20211;-73
2021/09/23 11:15:04;;;;;;;0.40;0.40;;;15.10;99.90;;;;;;4990765;28;20258;-72
2021/09/23 11:17:30;;;;;;;0.40;0.40;;;14.90;99.90;;;;;;4991333;28;20211;-73
2021/09/23 11:20:15;;;;;;;0.40;0.40;;;14.60;99.90;;;;;;4992023;28;20510;-73
2021/09/23 11:22:48;;;;;;;0.47;0.47;;;14.30;99.90;;;;;;4990409;28;20215;-73
2021/09/23 11:25:20;;;;;;;0.40;0.40;;;14.20;99.90;;;;;;4985537;28;20240;-72
2021/09/23 11:27:46;;;;;;;0.50;0.50;;;14.10;99.90;;;;;;4991860;28;20244;-73
2021/09/23 11:30:15;;;;;;;2.65;1.13;;;14.10;99.90;;;;;;4992080;28;20196;-73
2021/09/23 11:32:46;;;;;;;2.17;1.27;;;14.00;99.90;;;;;;4991636;28;20200;-73
2021/09/23 11:35:12;;;;;;;1.08;0.98;;;13.90;99.90;;;;;;4990499;28;20207;-73
2021/09/23 11:37:38;;;;;;;0.50;0.50;;;13.80;99.90;;;;;;4991539;28;20397;-73
2021/09/23 11:40:06;;;;;;;0.50;0.50;;;13.80;99.90;;;;;;4993006;28;20294;-72
2021/09/23 11:42:33;;;;;;;0.50;0.50;;;13.80;99.90;;;;;;4992551;28;20721;-72
2021/09/23 11:45:11;;;;;;;0.40;0.40;;;13.70;99.90;;;;;;4993016;28;20207;-72
2021/09/23 11:47:53;;;;;;;0.45;0.45;;;13.80;99.90;;;;;;4990186;28;20203;-73
2021/09/23 11:50:34;;;;;;;0.40;0.40;;;13.90;99.90;;;;;;4990243;28;20686;-74
2021/09/23 11:53:09;;;;;;;0.40;0.40;;;14.00;99.90;;;;;;4991520;28;20203;-72
2021/09/23 11:55:40;;;;;;;0.43;0.43;;;14.10;99.90;;;;;;4991220;28;20207;-72
2021/09/23 11:58:09;;;;;;;0.50;0.50;;;14.00;99.90;;;;;;4992808;28;20705;-72
2021/09/23 12:00:37;;;;;;;0.50;0.50;;;14.10;99.90;;;;;;4992246;28;20553;-73
2021/09/23 12:03:03;;;;;;;0.70;0.70;;;13.90;99.90;;;;;;4991170;28;20788;-72
2021/09/23 12:05:31;;;;;;;1.15;1.08;;;13.70;99.90;;;;;;4989675;28;20602;-72
2021/09/23 12:08:08;;;;;;;0.50;0.50;;;13.70;99.90;;;;;;4990234;28;20207;-72
2021/09/23 12:11:02;;;;;;;0.50;0.50;;;14.10;99.90;;;;;;4992278;28;20752;-74
2021/09/23 12:13:50;;;;;;;2.17;0.70;;;14.50;99.90;;;;;;4990591;28;20219;-73
2021/09/23 12:16:30;;;;;;;0.40;0.40;;;14.60;99.90;;;;;;4993038;28;20207;-73
2021/09/23 12:18:55;;;;;;;0.40;0.40;;;14.90;99.90;;;;;;4996585;28;20243;-73
2021/09/23 12:21:24;;;;;;;0.60;0.60;;;15.20;99.90;;;;;;4993657;28;20282;-73
2021/09/23 12:23:52;;;;;;;0.50;0.50;;;15.10;99.90;;;;;;4996490;28;20436;-73
2021/09/23 12:26:25;;;;;;;0.60;0.60;;;15.10;99.90;;;;;;4996333;28;20215;-74
2021/09/23 12:29:11;;;;;;;0.40;0.40;;;15.00;99.90;;;;;;4995184;28;20682;-72
2021/09/23 12:31:39;;;;;;;0.40;0.40;;;15.10;99.90;;;;;;4993721;28;20238;-72
2021/09/23 12:34:14;;;;;;;0.40;0.40;;;15.10;99.90;;;;;;4995076;28;20261;-72
2021/09/23 12:36:48;;;;;;;0.40;0.40;;;15.10;99.90;;;;;;4994840;28;20207;-72
2021/09/23 12:39:34;;;;;;;0.68;0.68;;;15.10;99.90;;;;;;4994767;28;20297;-73
2021/09/23 12:42:02;;;;;;;0.40;0.40;;;15.00;99.90;;;;;;4990211;28;20298;-72
2021/09/23 12:44:30;;;;;;;17.65;0.65;;;15.00;99.90;;;;;;4987739;28;20215;-72
2021/09/23 12:47:13;;;;;;;0.40;0.40;;;15.00;99.90;;;;;;4993371;28;20207;-71
2021/09/23 12:49:46;;;;;;;0.40;0.40;;;14.80;99.90;;;;;;4996106;28;20212;-72